Time;durP1;ratioP1;P1;durP2;ratioP2;P2;SDS_P1;SDS_P2;PMS_P1;PMS_P2;Temp;Humidity;BMP_temperature;BMP_pressure;BME280_temperature;BME280_humidity;BME280_pressure;Samples;Min_cycle;Max_cycle;Signal;HPM_P1;HPM_P2
2023/03/14 00:00:15;;;;;;;0.37;0.27;;;14.60;99.90;;;14.69;54.15;98770.16;4958296;28;97067;-48
2023/03/14 00:02:41;;;;;;;0.40;0.20;;;14.70;99.90;;;14.79;52.54;98739.25;4962056;28;97711;-48
2023/03/14 00:05:08;;;;;;;0.70;0.50;;;14.80;99.90;;;14.82;52.64;98739.00;4958191;28;97220;-51
2023/03/14 00:07:37;;;;;;;1.40;0.33;;;14.90;99.90;;;14.83;53.61;98736.22;4961932;28;98201;-47
2023/03/14 00:10:07;;;;;;;0.40;0.20;;;14.90;99.90;;;14.85;52.64;98741.38;4955554;28;97744;-46
2023/03/14 00:12:33;;;;;;;0.30;0.30;;;14.90;99.90;;;14.87;52.65;98736.78;4955812;28;97804;-46
2023/03/14 00:15:00;;;;;;;4.77;0.53;;;14.90;99.90;;;14.86;53.60;98740.41;4956791;28;97165;-47
2023/03/14 00:17:27;;;;;;;0.83;0.33;;;14.90;99.90;;;14.84;52.54;98758.28;4959169;28;98655;-50
2023/03/14 00:19:53;;;;;;;2.93;0.30;;;14.80;99.90;;;14.85;52.32;98770.59;4958505;28;97698;-46
2023/03/14 00:22:20;;;;;;;0.17;0.17;;;14.80;99.90;;;14.79;53.39;98787.88;4955719;28;97179;-44
2023/03/14 00:24:47;;;;;;;0.20;0.20;;;14.80;99.90;;;14.81;53.17;98796.53;4940742;28;97276;-46
2023/03/14 00:27:13;;;;;;;2.13;0.47;;;14.80;99.90;;;14.85;53.37;98799.78;4956278;28;97582;-48
2023/03/14 00:29:39;;;;;;;2.47;0.27;;;14.80;99.90;;;14.84;53.27;98806.06;4956502;28;97496;-49
2023/03/14 00:32:05;;;;;;;2.67;0.70;;;14.80;99.90;;;14.84;53.19;98806.06;4953877;28;103138;-46
2023/03/14 00:34:32;;;;;;;2.03;0.40;;;14.80;99.90;;;14.78;53.79;98802.09;4964057;28;100162;-45
2023/03/14 00:36:58;;;;;;;0.60;0.30;;;14.80;99.90;;;14.71;54.05;98808.03;4953000;28;97466;-45
2023/03/14 00:39:24;;;;;;;2.30;0.63;;;14.70;99.90;;;14.66;54.10;98791.66;4958173;28;99083;-47
2023/03/14 00:41:50;;;;;;;0.93;0.40;;;14.70;99.90;;;14.61;53.83;98780.56;4958490;28;100155;-44
2023/03/14 00:44:15;;;;;;;1.80;0.43;;;14.60;99.90;;;14.67;52.96;98777.41;4958243;28;100528;-46
2023/03/14 00:46:42;;;;;;;1.63;0.33;;;14.70;99.90;;;14.67;54.04;98782.72;4950493;28;100278;-45
2023/03/14 00:49:07;;;;;;;2.37;0.43;;;14.80;99.90;;;14.64;54.06;98780.31;4942038;28;103206;-44
2023/03/14 00:51:33;;;;;;;0.63;0.30;;;14.70;99.90;;;14.56;54.36;98781.78;4950780;28;97943;-46
2023/03/14 00:54:00;;;;;;;1.70;0.53;;;14.70;99.90;;;14.57;53.77;98772.84;4944316;28;97697;-46
2023/03/14 00:56:26;;;;;;;0.93;0.53;;;14.60;99.90;;;14.58;53.30;98774.53;4947780;28;97278;-43
2023/03/14 00:58:57;;;;;;;0.27;0.20;;;14.70;99.90;;;14.54;54.65;98799.63;4949668;28;100041;-46
2023/03/14 01:01:24;;;;;;;0.20;0.20;;;14.60;99.90;;;14.25;56.74;98868.25;4950205;28;97228;-44
2023/03/14 01:03:55;;;;;;;0.00;0.00;;;14.50;99.90;;;13.66;60.04;98865.78;4983146;28;99051;-45
2023/03/14 01:06:24;;;;;;;3.10;0.13;;;14.20;99.90;;;13.47;62.49;98846.97;4970007;28;102717;-44
2023/03/14 01:08:51;;;;;;;0.30;0.30;;;13.90;99.90;;;13.22;62.89;98850.59;4982349;28;96891;-44
2023/03/14 01:11:25;;;;;;;2.87;0.27;;;13.60;99.90;;;13.33;60.13;98853.28;4981490;28;97179;-48
2023/03/14 01:13:52;;;;;;;1.60;0.17;;;13.60;99.90;;;13.36;60.23;98846.91;4987972;28;98861;-48
2023/03/14 01:16:20;;;;;;;0.00;0.00;;;13.70;99.90;;;13.42;60.71;98850.91;4964389;28;97525;-46
2023/03/14 01:18:48;;;;;;;0.00;0.00;;;13.70;99.90;;;13.48;60.88;98855.75;4985704;28;98473;-48
2023/03/14 01:21:27;;;;;;;0.20;0.10;;;13.80;99.90;;;13.50;58.67;98848.53;4981793;28;97259;-46
2023/03/14 01:23:56;;;;;;;3.47;0.30;;;13.80;99.90;;;13.56;59.70;98853.34;4971256;28;97338;-51
2023/03/14 01:26:25;;;;;;;0.00;0.00;;;13.80;99.90;;;13.44;62.49;98838.38;4984266;28;100316;-50
2023/03/14 01:28:53;;;;;;;2.07;0.30;;;13.70;99.90;;;13.38;63.40;98822.00;4985744;28;97074;-48
2023/03/14 01:31:19;;;;;;;0.20;0.10;;;13.50;99.90;;;13.37;63.44;98812.38;4982985;28;97209;-48
2023/03/14 01:33:46;;;;;;;1.33;0.37;;;13.40;99.90;;;13.32;60.72;98798.66;4991464;28;96959;-48
2023/03/14 01:36:13;;;;;;;0.40;0.40;;;13.30;99.90;;;13.34;63.84;98796.72;4964391;28;98655;-50
2023/03/14 01:38:39;;;;;;;0.87;0.17;;;13.30;99.90;;;13.22;64.36;98786.22;4988256;28;97218;-45
2023/03/14 01:41:08;;;;;;;1.03;0.20;;;13.20;99.90;;;13.25;62.89;98794.78;4986116;28;98666;-48
2023/03/14 01:43:34;;;;;;;1.60;0.40;;;13.20;99.90;;;13.28;61.75;98802.47;4987009;28;97529;-48
2023/03/14 01:46:05;;;;;;;0.70;0.20;;;13.20;99.90;;;13.27;63.73;98792.84;4966417;28;102975;-50
2023/03/14 01:49:07;;;;;;;0.53;0.10;;;13.20;99.90;;;13.35;60.92;98787.81;4991306;28;97178;-45
2023/03/14 01:51:47;;;;;;;0.70;0.30;;;13.20;99.90;;;13.34;62.37;98783.50;4960717;28;97011;-48
2023/03/14 01:54:44;;;;;;;1.00;0.27;;;13.30;99.90;;;13.38;63.24;98784.94;4986723;28;98311;-44
2023/03/14 01:57:21;;;;;;;0.00;0.00;;;13.30;99.90;;;13.38;62.33;98782.28;4970334;28;97362;-47
2023/03/14 01:59:58;;;;;;;1.07;0.10;;;13.20;99.90;;;13.33;64.53;98783.63;4995242;28;96986;-45
2023/03/14 02:02:27;;;;;;;2.43;0.20;;;13.20;99.90;;;13.39;63.18;98783.97;4978513;28;97344;-46
2023/03/14 02:04:55;;;;;;;0.17;0.10;;;13.30;99.90;;;13.43;61.74;98770.50;4955348;28;97539;-43
2023/03/14 02:07:47;;;;;;;0.20;0.10;;;13.30;99.90;;;13.40;65.01;98777.72;4989281;28;102098;-51
2023/03/14 02:10:18;;;;;;;0.97;0.30;;;13.30;99.90;;;13.44;63.05;98769.53;4988815;28;97194;-50
2023/03/14 02:12:46;;;;;;;2.43;0.40;;;13.30;99.90;;;13.39;63.48;98780.47;4976673;28;97556;-47
2023/03/14 02:15:12;;;;;;;0.47;0.27;;;13.30;99.90;;;13.46;63.02;98778.22;4988152;28;97426;-47
2023/03/14 02:17:41;;;;;;;0.93;0.33;;;13.30;99.90;;;13.37;60.25;98775.31;4992465;28;97093;-48
2023/03/14 02:20:36;;;;;;;0.27;0.07;;;13.30;99.90;;;13.34;64.09;98774.72;4971342;28;97517;-43
2023/03/14 02:23:02;;;;;;;0.43;0.23;;;13.30;99.90;;;13.31;63.79;98778.44;4986731;28;97458;-48
2023/03/14 02:25:40;;;;;;;0.50;0.10;;;13.30;99.90;;;13.34;62.66;98769.41;4983721;28;97313;-46
2023/03/14 02:28:06;;;;;;;0.40;0.10;;;13.30;99.90;;;13.24;62.85;98784.31;4985254;28;97416;-47
2023/03/14 02:30:34;;;;;;;0.00;0.00;;;13.20;99.90;;;13.31;61.28;98786.38;4986802;28;97097;-48
2023/03/14 02:33:08;;;;;;;0.47;0.23;;;13.20;99.90;;;13.39;62.90;98777.84;4982139;28;97161;-47
2023/03/14 02:36:00;;;;;;;0.23;0.20;;;13.30;99.90;;;13.34;59.96;98774.72;4988380;28;96996;-45
2023/03/14 02:38:58;;;;;;;0.83;0.40;;;13.20;99.90;;;13.31;64.34;98775.78;4967644;28;102627;-44
2023/03/14 02:41:24;;;;;;;2.83;0.37;;;13.30;99.90;;;13.26;64.31;98777.09;4960170;28;103231;-47
2023/03/14 02:43:50;;;;;;;0.33;0.10;;;13.20;99.90;;;13.21;63.76;98769.50;4971120;28;97042;-48
2023/03/14 02:46:21;;;;;;;0.33;0.20;;;13.20;99.90;;;13.29;60.58;98761.78;4981416;28;97196;-48
2023/03/14 02:48:52;;;;;;;0.47;0.13;;;13.20;99.90;;;13.26;63.53;98767.34;4972745;28;97801;-45
2023/03/14 02:51:19;;;;;;;0.93;0.30;;;13.30;99.90;;;13.17;64.29;98761.88;4987028;28;98223;-48
2023/03/14 02:53:45;;;;;;;0.00;0.00;;;13.20;99.90;;;13.29;59.81;98761.78;4992808;28;97150;-49
2023/03/14 02:56:11;;;;;;;0.10;0.10;;;13.20;99.90;;;13.33;63.82;98763.28;4978287;28;99546;-47
2023/03/14 02:58:37;;;;;;;0.50;0.20;;;13.30;99.90;;;13.27;64.36;98762.88;4985475;28;97788;-46
2023/03/14 03:01:04;;;;;;;0.20;0.10;;;13.20;99.90;;;13.26;63.93;98751.44;4978774;28;98652;-48
2023/03/14 03:03:29;;;;;;;0.57;0.30;;;13.20;99.90;;;13.18;63.54;98751.22;4986175;28;97341;-44
2023/03/14 03:05:56;;;;;;;0.57;0.20;;;13.20;99.90;;;13.28;61.49;98753.97;4962891;28;99472;-52
2023/03/14 03:08:26;;;;;;;2.83;0.20;;;13.20;99.90;;;13.33;62.86;98742.09;4958287;28;103338;-45
2023/03/14 03:10:52;;;;;;;0.20;0.20;;;13.20;99.90;;;13.39;60.01;98736.31;4962947;28;97380;-48
2023/03/14 03:13:18;;;;;;;2.10;0.20;;;13.30;99.90;;;13.51;59.08;98733.69;4983158;28;97305;-46
2023/03/14 03:15:45;;;;;;;0.20;0.20;;;13.40;99.90;;;13.57;59.40;98727.88;4986963;28;98486;-48
2023/03/14 03:18:11;;;;;;;0.57;0.30;;;13.40;99.90;;;13.63;58.05;98727.44;4981570;28;97773;-47
2023/03/14 03:20:37;;;;;;;2.83;0.10;;;13.40;99.90;;;13.78;56.81;98715.63;4965770;28;97642;-47
2023/03/14 03:23:03;;;;;;;4.33;0.30;;;13.60;99.90;;;13.87;57.59;98714.88;4975691;28;97525;-44
2023/03/14 03:25:29;;;;;;;0.20;0.10;;;13.80;99.90;;;13.99;55.82;98713.88;4982575;28;97563;-45
2023/03/14 03:27:55;;;;;;;0.50;0.20;;;13.90;99.90;;;14.04;56.23;98710.06;4984513;28;97152;-45
2023/03/14 03:30:21;;;;;;;0.17;0.10;;;13.90;99.90;;;14.11;55.63;98713.88;4965144;28;103373;-44
2023/03/14 03:32:47;;;;;;;1.93;0.20;;;14.00;99.90;;;14.13;56.57;98706.63;4985372;28;98199;-47
2023/03/14 03:35:13;;;;;;;0.73;0.20;;;14.00;99.90;;;14.11;57.97;98708.56;4983238;28;105416;-46
2023/03/14 03:37:40;;;;;;;0.93;0.50;;;14.00;99.90;;;14.10;57.19;98706.91;4983707;28;98385;-48
2023/03/14 03:40:07;;;;;;;0.40;0.00;;;13.90;99.90;;;14.10;58.13;98704.25;4983797;28;101464;-46
2023/03/14 03:42:34;;;;;;;0.43;0.13;;;13.90;99.90;;;14.12;56.71;98707.59;4991755;28;97429;-50
2023/03/14 03:45:02;;;;;;;2.27;0.20;;;13.90;99.90;;;14.04;57.13;98707.41;4984902;28;97532;-44
2023/03/14 03:47:31;;;;;;;1.17;0.33;;;13.80;99.90;;;14.06;58.55;98708.97;4971785;28;102590;-46
2023/03/14 03:49:57;;;;;;;0.20;0.07;;;13.80;99.90;;;14.04;57.82;98704.75;4984579;28;97137;-44
2023/03/14 03:52:23;;;;;;;0.10;0.10;;;13.80;99.90;;;14.00;59.87;98698.84;4983073;28;96927;-50
2023/03/14 03:54:48;;;;;;;1.53;0.30;;;13.80;99.90;;;14.01;59.12;98697.88;4986849;28;97076;-47
2023/03/14 03:57:14;;;;;;;2.33;0.30;;;13.80;99.90;;;13.89;57.07;98697.06;4983391;28;97023;-47
2023/03/14 03:59:40;;;;;;;0.70;0.20;;;13.70;99.90;;;13.87;58.26;98693.66;4986151;28;99764;-48
2023/03/14 04:02:07;;;;;;;0.87;0.50;;;13.70;99.90;;;13.88;60.15;98689.22;4982579;28;97140;-44
2023/03/14 04:04:33;;;;;;;2.67;0.40;;;13.70;99.90;;;13.77;58.37;98687.44;4987916;28;97538;-47
2023/03/14 04:06:59;;;;;;;0.30;0.30;;;13.60;99.90;;;13.80;60.53;98692.50;4979865;28;97429;-45
2023/03/14 04:09:25;;;;;;;1.03;0.47;;;13.60;99.90;;;13.66;58.56;98695.38;4986166;28;97449;-49
2023/03/14 04:11:51;;;;;;;0.70;0.37;;;13.50;99.90;;;13.73;57.70;98696.56;4985945;28;97916;-48
2023/03/14 04:14:16;;;;;;;1.10;0.60;;;13.60;99.90;;;13.74;58.42;98692.97;4982042;28;96961;-48
2023/03/14 04:16:42;;;;;;;1.90;0.47;;;13.70;99.90;;;13.66;61.46;98696.22;4986015;28;97640;-44
2023/03/14 04:19:08;;;;;;;5.20;0.50;;;13.60;99.90;;;13.71;58.54;98687.91;4983630;28;103488;-43
2023/03/14 04:21:34;;;;;;;0.70;0.40;;;13.60;99.90;;;13.64;61.42;98692.03;4981773;28;98033;-44
2023/03/14 04:24:00;;;;;;;0.73;0.20;;;13.60;99.90;;;13.67;59.94;98684.66;4980159;28;97091;-48
2023/03/14 04:26:25;;;;;;;1.33;0.47;;;13.60;99.90;;;13.60;62.06;98690.59;4985272;28;97223;-46
2023/03/14 04:28:51;;;;;;;0.50;0.20;;;13.50;99.90;;;13.62;59.37;98678.91;4986670;28;97031;-47
2023/03/14 04:31:21;;;;;;;2.57;0.20;;;13.50;99.90;;;13.57;60.52;98674.91;4979778;28;97466;-47
2023/03/14 04:33:47;;;;;;;1.80;0.10;;;13.50;99.90;;;13.50;62.26;98679.88;4983803;28;97442;-48
2023/03/14 04:36:14;;;;;;;1.47;0.23;;;13.50;99.90;;;13.44;60.61;98679.50;4982089;28;97620;-47
2023/03/14 04:38:40;;;;;;;0.20;0.20;;;13.40;99.90;;;13.43;61.63;98683.09;4982132;28;97174;-44
2023/03/14 04:41:06;;;;;;;1.40;0.27;;;13.40;99.90;;;13.33;63.21;98683.84;4981509;28;97449;-48
2023/03/14 04:43:32;;;;;;;0.20;0.20;;;13.30;99.90;;;13.34;63.05;98674.94;4986717;28;97510;-46
2023/03/14 04:45:59;;;;;;;1.73;0.20;;;13.40;99.90;;;13.23;63.96;98674.06;4982354;28;97361;-47
2023/03/14 04:48:26;;;;;;;0.47;0.20;;;13.30;99.90;;;13.27;62.98;98657.81;4985318;28;98327;-47
2023/03/14 04:50:52;;;;;;;0.30;0.10;;;13.30;99.90;;;13.26;61.23;98656.16;4964363;28;97597;-50
2023/03/14 04:53:19;;;;;;;0.13;0.00;;;13.30;99.90;;;13.29;62.71;98655.91;4983594;28;97276;-45
2023/03/14 04:55:54;;;;;;;2.67;0.40;;;13.30;99.90;;;13.31;63.07;98648.72;4990872;28;98449;-49
2023/03/14 04:58:21;;;;;;;0.93;0.20;;;13.30;99.90;;;13.32;60.23;98634.50;4987980;28;97159;-45
2023/03/14 05:00:47;;;;;;;2.27;0.10;;;13.30;99.90;;;13.33;61.08;98641.47;4987638;28;96934;-43
2023/03/14 05:03:15;;;;;;;0.93;0.30;;;13.30;99.90;;;13.24;64.09;98628.09;4978915;28;97313;-46
2023/03/14 05:05:42;;;;;;;0.20;0.20;;;13.30;99.90;;;13.24;61.42;98626.31;4986923;28;97508;-48
2023/03/14 05:08:08;;;;;;;0.40;0.13;;;13.20;99.90;;;13.23;60.95;98635.22;4983626;28;97057;-45
2023/03/14 05:10:33;;;;;;;0.53;0.17;;;13.20;99.90;;;13.16;63.95;98625.19;4988588;28;97063;-45
2023/03/14 05:12:59;;;;;;;1.27;0.40;;;13.20;99.90;;;13.16;64.04;98618.06;4983693;28;96853;-48
2023/03/14 05:15:25;;;;;;;0.50;0.20;;;13.20;99.90;;;13.11;64.60;98625.53;4967947;28;100769;-45
2023/03/14 05:17:51;;;;;;;0.60;0.07;;;13.20;99.90;;;13.11;64.63;98613.16;4986807;28;97506;-45
2023/03/14 05:20:17;;;;;;;0.67;0.30;;;13.20;99.90;;;13.09;64.64;98619.53;4982169;28;97384;-46
2023/03/14 05:22:43;;;;;;;0.73;0.10;;;13.10;99.90;;;13.16;64.18;98611.94;4985980;28;97318;-43
2023/03/14 05:25:10;;;;;;;1.40;0.10;;;13.20;99.90;;;13.22;62.75;98606.22;4982869;28;116353;-47
2023/03/14 05:27:36;;;;;;;0.40;0.20;;;13.20;99.90;;;13.17;64.56;98609.19;4986396;28;96769;-46
2023/03/14 05:30:04;;;;;;;0.10;0.10;;;13.20;99.90;;;13.21;60.64;98602.72;4982669;28;97187;-45
2023/03/14 05:32:30;;;;;;;0.33;0.20;;;13.20;99.90;;;13.11;64.00;98609.66;4986538;28;97024;-44
2023/03/14 05:34:58;;;;;;;1.50;0.17;;;13.10;99.90;;;13.21;62.19;98605.38;4985063;28;98572;-50
2023/03/14 05:37:25;;;;;;;0.23;0.13;;;13.20;99.90;;;13.17;63.11;98597.78;4976961;28;102809;-51
2023/03/14 05:39:51;;;;;;;0.53;0.10;;;13.20;99.90;;;13.13;61.40;98607.72;4982853;28;97107;-44
2023/03/14 05:42:17;;;;;;;3.67;0.20;;;13.20;99.90;;;13.18;62.99;98607.41;4983281;28;96953;-47
2023/03/14 05:44:43;;;;;;;3.33;0.30;;;13.20;99.90;;;13.21;62.47;98600.09;4985323;28;98101;-46
2023/03/14 05:47:09;;;;;;;0.27;0.10;;;13.20;99.90;;;13.19;63.28;98598.53;4979691;28;97822;-46
2023/03/14 05:49:35;;;;;;;0.17;0.10;;;13.20;99.90;;;13.26;62.36;98602.34;4969842;28;97609;-45
2023/03/14 05:52:01;;;;;;;2.00;0.67;;;13.30;99.90;;;13.23;62.11;98592.84;4980611;28;97904;-45
2023/03/14 05:54:27;;;;;;;0.00;0.00;;;13.30;99.90;;;13.16;63.10;98596.06;4984717;28;97591;-48
2023/03/14 05:56:52;;;;;;;0.10;0.00;;;13.20;99.90;;;13.28;60.22;98595.97;4982130;28;97623;-44
2023/03/14 05:59:18;;;;;;;0.73;0.10;;;13.30;99.90;;;13.27;61.31;98594.28;4981832;28;97295;-48
2023/03/14 06:01:44;;;;;;;0.23;0.20;;;13.30;99.90;;;13.40;60.46;98599.47;4985716;28;98767;-47
2023/03/14 06:04:10;;;;;;;0.00;0.00;;;13.40;99.90;;;13.43;59.82;98598.38;4983850;28;97310;-48
2023/03/14 06:06:36;;;;;;;0.10;0.03;;;13.40;99.90;;;13.44;60.40;98594.75;4985003;28;97545;-48
2023/03/14 06:09:02;;;;;;;0.00;0.00;;;13.50;99.90;;;13.47;60.64;98594.53;4986285;28;97506;-47
2023/03/14 06:11:28;;;;;;;0.20;0.10;;;13.50;99.90;;;13.54;59.99;98601.00;4985084;28;97336;-47
2023/03/14 06:13:54;;;;;;;0.47;0.10;;;13.60;99.90;;;13.55;60.42;98607.97;4987944;28;97282;-46
2023/03/14 06:16:20;;;;;;;0.20;0.00;;;13.60;99.90;;;13.54;60.87;98598.34;4984885;28;97504;-45
2023/03/14 06:18:48;;;;;;;0.00;0.00;;;13.60;99.90;;;13.44;61.47;98602.69;4990918;28;98870;-45
2023/03/14 06:21:15;;;;;;;0.00;0.00;;;13.50;99.90;;;13.35;61.77;98589.25;4984683;28;97089;-44
2023/03/14 06:23:41;;;;;;;0.60;0.10;;;13.40;99.90;;;13.32;62.49;98586.84;4992264;28;99105;-46
2023/03/14 06:26:06;;;;;;;2.63;0.10;;;13.40;99.90;;;13.37;61.64;98589.13;4987694;28;97221;-44
2023/03/14 06:28:32;;;;;;;8.50;0.60;;;13.40;99.90;;;13.35;62.16;98586.59;4997124;28;97391;-44
2023/03/14 06:30:59;;;;;;;0.00;0.00;;;13.40;99.90;;;13.44;59.07;98589.47;4976017;28;97521;-45
2023/03/14 06:33:25;;;;;;;0.20;0.10;;;13.40;99.90;;;13.38;59.56;98586.34;4990800;28;96914;-45
2023/03/14 06:35:51;;;;;;;0.00;0.00;;;13.40;99.90;;;13.30;62.30;98583.44;4992487;28;97444;-47
2023/03/14 06:38:17;;;;;;;0.70;0.10;;;13.30;99.90;;;13.36;61.74;98593.56;4988854;28;97196;-50
2023/03/14 06:40:43;;;;;;;0.00;0.00;;;13.40;99.90;;;13.29;61.75;98580.94;4991578;28;97233;-43
2023/03/14 06:43:08;;;;;;;0.30;0.00;;;13.30;99.90;;;13.32;59.57;98597.44;4986013;28;98930;-48
2023/03/14 06:45:34;;;;;;;0.00;0.00;;;13.30;99.90;;;13.29;60.29;98597.66;4975270;28;97257;-46
2023/03/14 06:48:00;;;;;;;0.30;0.10;;;13.30;99.90;;;13.26;61.57;98597.91;4990014;28;96851;-47
2023/03/14 06:50:26;;;;;;;0.00;0.00;;;13.30;99.90;;;13.36;59.98;98604.16;4987663;28;97268;-46
2023/03/14 06:52:52;;;;;;;0.10;0.07;;;13.30;99.90;;;13.38;60.70;98602.22;4988797;28;97830;-45
2023/03/14 06:55:17;;;;;;;0.13;0.07;;;13.40;99.90;;;13.35;61.65;98601.63;4984552;28;97393;-43
2023/03/14 06:57:43;;;;;;;6.70;0.33;;;13.40;99.90;;;13.42;60.76;98608.13;4990458;28;97257;-46
2023/03/14 07:00:11;;;;;;;0.20;0.00;;;13.40;99.90;;;13.40;59.15;98595.00;4988249;28;97088;-43
2023/03/14 07:02:37;;;;;;;0.00;0.00;;;13.40;99.90;;;13.45;60.94;98599.91;4990678;28;97606;-43
2023/03/14 07:05:04;;;;;;;0.10;0.00;;;13.40;99.90;;;13.50;60.13;98604.88;4987153;28;101880;-43
2023/03/14 07:07:30;;;;;;;0.17;0.10;;;13.60;99.90;;;13.61;58.56;98600.41;4986528;28;97492;-43
2023/03/14 07:09:55;;;;;;;0.20;0.20;;;13.60;99.90;;;13.56;60.63;98609.66;4984794;28;99884;-52
2023/03/14 07:12:21;;;;;;;0.10;0.00;;;13.60;99.90;;;13.55;60.62;98613.28;4983479;28;105333;-44
2023/03/14 07:14:47;;;;;;;0.00;0.00;;;13.60;99.90;;;13.63;58.78;98610.88;4987381;28;97107;-44
2023/03/14 07:17:13;;;;;;;0.00;0.00;;;13.60;99.90;;;13.64;59.84;98612.56;4979941;28;98834;-43
2023/03/14 07:19:39;;;;;;;1.03;0.10;;;13.60;99.90;;;13.66;61.01;98621.22;4981301;28;97549;-43
2023/03/14 07:22:05;;;;;;;0.17;0.00;;;13.70;99.90;;;13.60;60.28;98632.31;4978848;28;97622;-45
2023/03/14 07:24:31;;;;;;;0.00;0.00;;;13.60;99.90;;;13.60;61.21;98632.31;4984265;28;97591;-42
2023/03/14 07:26:57;;;;;;;0.10;0.00;;;13.60;99.90;;;13.57;61.77;98638.69;4983293;28;97470;-45
2023/03/14 07:29:23;;;;;;;0.33;0.10;;;13.60;99.90;;;13.65;60.93;98635.44;4985748;28;97179;-43
2023/03/14 07:31:49;;;;;;;0.13;0.10;;;13.60;99.90;;;13.74;60.25;98634.66;4980137;28;97929;-44
2023/03/14 07:34:14;;;;;;;0.00;0.00;;;13.70;99.90;;;13.76;58.42;98632.75;4958877;28;98971;-44
2023/03/14 07:36:40;;;;;;;0.00;0.00;;;13.70;99.90;;;13.80;61.46;98644.78;4975962;28;98521;-48
2023/03/14 07:39:07;;;;;;;1.23;0.07;;;13.80;99.90;;;13.78;60.86;98641.44;4978383;28;96881;-43
2023/03/14 07:41:33;;;;;;;0.67;0.10;;;13.80;99.90;;;13.80;60.47;98644.78;4981028;28;97395;-44
2023/03/14 07:43:59;;;;;;;0.10;0.10;;;13.80;99.90;;;13.90;60.37;98645.75;4980961;28;97286;-45
2023/03/14 07:46:24;;;;;;;0.00;0.00;;;13.90;99.90;;;13.96;59.24;98649.69;4984975;28;97914;-43
2023/03/14 07:48:50;;;;;;;0.00;0.00;;;14.00;99.90;;;13.87;59.12;98637.19;4985986;28;96730;-43
2023/03/14 07:51:16;;;;;;;1.10;0.00;;;13.90;99.90;;;13.84;60.54;98648.88;4977815;28;97480;-44
2023/03/14 07:53:43;;;;;;;0.00;0.00;;;13.80;99.90;;;13.82;60.88;98647.31;4982519;28;99116;-46
2023/03/14 07:56:09;;;;;;;0.33;0.10;;;13.80;99.90;;;13.75;60.91;98657.59;4980961;28;97089;-43
2023/03/14 07:58:34;;;;;;;0.00;0.00;;;13.80;99.90;;;13.70;61.26;98651.78;4983736;28;97204;-45
2023/03/14 08:01:00;;;;;;;0.00;0.00;;;13.70;99.90;;;13.74;61.97;98650.56;4976514;28;97346;-45
2023/03/14 08:03:26;;;;;;;0.77;0.10;;;13.70;99.90;;;13.80;60.80;98655.38;4980882;28;101709;-45
2023/03/14 08:05:53;;;;;;;0.50;0.20;;;13.80;99.90;;;13.85;58.14;98652.38;4984958;28;97200;-43
2023/03/14 08:08:19;;;;;;;0.20;0.10;;;13.80;99.90;;;13.84;61.11;98662.13;4963717;28;97462;-44
2023/03/14 08:10:46;;;;;;;0.23;0.10;;;13.80;99.90;;;13.80;61.67;98660.69;4983721;28;99233;-46
2023/03/14 08:13:12;;;;;;;0.00;0.00;;;13.80;99.90;;;13.79;59.98;98664.31;4980731;28;97673;-44
2023/03/14 08:15:38;;;;;;;0.10;0.10;;;13.80;99.90;;;13.81;61.81;98659.72;4986097;28;97982;-45
2023/03/14 08:18:05;;;;;;;0.40;0.23;;;13.80;99.90;;;13.82;60.86;98661.41;4964625;28;97535;-45
2023/03/14 08:20:31;;;;;;;0.00;0.00;;;13.80;99.90;;;13.84;62.44;98666.56;4983478;28;97452;-46
2023/03/14 08:22:59;;;;;;;0.20;0.00;;;13.90;99.90;;;13.80;61.61;98666.00;4981787;28;99337;-44
2023/03/14 08:25:25;;;;;;;0.00;0.00;;;13.90;99.90;;;13.80;62.38;98667.81;4977142;28;97540;-47
2023/03/14 08:27:51;;;;;;;0.17;0.07;;;13.80;99.90;;;13.89;62.12;98665.25;4985394;28;101433;-44
2023/03/14 08:30:19;;;;;;;0.20;0.10;;;13.90;99.90;;;13.97;61.28;98668.13;4975649;28;97514;-44
2023/03/14 08:32:46;;;;;;;0.53;0.13;;;14.00;99.90;;;13.94;62.42;98668.38;4983626;28;97139;-44
2023/03/14 08:35:12;;;;;;;0.23;0.23;;;14.00;99.90;;;13.85;63.57;98669.09;4981023;28;96920;-44
2023/03/14 08:37:38;;;;;;;0.23;0.00;;;13.90;99.90;;;13.87;62.93;98672.47;4986662;28;97199;-43
2023/03/14 08:40:08;;;;;;;0.20;0.10;;;13.90;99.90;;;13.96;60.97;98674.38;4984002;28;97169;-44
2023/03/14 08:42:34;;;;;;;0.00;0.00;;;14.00;99.90;;;13.98;63.79;98674.25;4972485;28;98567;-46
2023/03/14 08:45:00;;;;;;;0.00;0.00;;;14.00;99.90;;;13.90;62.48;98677.53;4988456;28;97307;-46
2023/03/14 08:47:26;;;;;;;0.17;0.07;;;13.90;99.90;;;13.90;63.87;98687.31;4991189;28;97504;-45
2023/03/14 08:49:52;;;;;;;0.10;0.10;;;13.90;99.90;;;13.92;60.35;98680.91;4993777;28;97058;-44
2023/03/14 08:52:18;;;;;;;0.03;0.03;;;13.90;99.90;;;13.95;61.43;98685.13;4965055;23;98062;-46
2023/03/14 08:54:44;;;;;;;1.93;0.10;;;14.10;99.90;;;13.99;61.18;98687.38;4941134;28;96920;-44
2023/03/14 08:57:10;;;;;;;1.83;0.00;;;14.10;99.90;;;13.96;62.55;98682.34;4940168;28;97465;-56
2023/03/14 08:59:36;;;;;;;0.77;0.00;;;14.10;99.90;;;13.88;65.34;98687.41;4943812;28;97336;-53
2023/03/14 09:02:05;;;;;;;0.10;0.10;;;13.90;99.90;;;13.80;66.38;98697.78;4943552;28;98504;-46
2023/03/14 09:04:32;;;;;;;0.17;0.13;;;13.90;99.90;;;13.81;60.46;98698.63;4945145;28;101865;-49
2023/03/14 09:06:59;;;;;;;0.10;0.10;;;13.80;99.90;;;13.80;65.25;98696.94;4934313;28;97492;-49
2023/03/14 09:09:32;;;;;;;0.00;0.00;;;13.90;99.90;;;13.80;64.53;98694.28;4943824;28;97720;-51
2023/03/14 09:11:58;;;;;;;0.00;0.00;;;13.90;99.90;;;13.88;63.05;98700.66;4940447;28;98189;-53
2023/03/14 09:14:24;;;;;;;0.00;0.00;;;13.90;99.90;;;13.89;64.01;98702.38;4945921;28;97266;-50
2023/03/14 09:16:50;;;;;;;0.10;0.10;;;14.00;99.90;;;13.87;63.43;98714.88;4942932;28;97295;-48
2023/03/14 09:19:16;;;;;;;0.00;0.00;;;13.90;99.90;;;13.81;65.75;98720.66;4939087;28;98648;-53
2023/03/14 09:21:42;;;;;;;0.10;0.10;;;13.90;99.90;;;13.71;65.28;98725.00;4944707;28;98328;-49
2023/03/14 09:24:08;;;;;;;0.10;0.10;;;13.80;99.90;;;13.80;61.38;98724.28;4939649;28;97179;-50
2023/03/14 09:26:34;;;;;;;0.90;0.27;;;13.80;99.90;;;13.90;63.02;98730.56;4940569;28;97364;-52
2023/03/14 09:29:00;;;;;;;0.00;0.00;;;14.10;99.90;;;13.88;63.70;98737.75;4943717;28;98005;-49
2023/03/14 09:31:27;;;;;;;0.10;0.10;;;14.00;99.90;;;13.87;63.54;98741.38;4942556;28;98124;-47
2023/03/14 09:33:53;;;;;;;0.00;0.00;;;14.10;99.90;;;13.88;60.49;98753.66;4944370;28;97522;-48
2023/03/14 09:36:18;;;;;;;0.07;0.07;;;14.00;99.90;;;13.82;62.57;98754.16;4941194;28;97526;-47
2023/03/14 09:38:44;;;;;;;0.43;0.20;;;14.10;99.90;;;13.72;65.13;98790.28;4948989;28;98651;-51
2023/03/14 09:41:20;;;;;;;0.63;0.20;;;14.00;99.90;;;13.42;67.15;98824.41;4945338;28;96912;-52
2023/03/14 09:43:50;;;;;;;0.10;0.07;;;13.90;99.90;;;12.46;65.56;98821.81;4947117;28;98578;-50
2023/03/14 09:46:17;;;;;;;0.00;0.00;;;13.10;99.90;;;12.07;65.99;98834.28;4939500;28;99174;-54
2023/03/14 09:48:43;;;;;;;0.37;0.30;;;12.60;99.90;;;11.92;66.28;98856.50;4946900;28;106883;-52
2023/03/14 09:51:20;;;;;;;0.20;0.20;;;12.40;99.90;;;11.60;66.87;98878.00;4944281;28;117651;-47
2023/03/14 09:53:48;;;;;;;0.00;0.00;;;12.10;99.90;;;11.29;66.96;98899.50;4947173;28;97335;-49
2023/03/14 09:56:22;;;;;;;0.00;0.00;;;11.80;99.90;;;10.92;68.72;98901.88;4947331;28;97436;-52
2023/03/14 09:59:02;;;;;;;0.57;0.10;;;11.50;99.90;;;10.80;69.74;98922.91;4950389;28;98374;-50
2023/03/14 10:01:32;;;;;;;0.10;0.03;;;11.30;99.90;;;10.56;70.24;98928.81;4944902;28;99645;-50
2023/03/14 10:04:07;;;;;;;0.10;0.10;;;11.20;99.90;;;10.64;70.80;98939.72;4934363;28;97318;-54
2023/03/14 10:06:34;;;;;;;0.10;0.03;;;11.10;99.90;;;10.57;70.55;98945.47;4948531;28;97177;-47
2023/03/14 10:09:02;;;;;;;0.00;0.00;;;11.10;99.90;;;10.46;70.84;98961.97;4941373;28;97880;-51
2023/03/14 10:11:28;;;;;;;0.00;0.00;;;11.00;99.90;;;10.41;71.09;98958.75;4944797;28;97298;-48
2023/03/14 10:14:12;;;;;;;0.00;0.00;;;10.90;99.90;;;10.32;71.32;98970.72;4948814;28;97540;-48
2023/03/14 10:16:45;;;;;;;0.20;0.10;;;10.80;99.90;;;10.46;71.25;98982.19;4946456;28;97712;-49
2023/03/14 10:19:16;;;;;;;0.00;0.00;;;10.90;99.90;;;10.28;72.18;98985.03;4926913;28;100519;-52